sensor_id;sensor_type;location;lat;lon;timestamp;P1;durP1;ratioP1;P2;durP2;ratioP2
63807;SDS011;49961;43.970;22.868;2023-07-13T00:00:37;9.27;;;6.13;;
63807;SDS011;49961;43.970;22.868;2023-07-13T00:01:39;8.53;;;5.80;;
63807;SDS011;49961;43.970;22.868;2023-07-13T00:02:39;7.53;;;6.20;;
63807;SDS011;49961;43.970;22.868;2023-07-13T00:03:39;9.97;;;6.47;;
63807;SDS011;49961;43.970;22.868;2023-07-13T00:04:41;6.47;;;5.73;;
63807;SDS011;49961;43.970;22.868;2023-07-13T00:05:41;7.50;;;6.53;;
63807;SDS011;49961;43.970;22.868;2023-07-13T00:06:42;10.47;;;6.53;;
63807;SDS011;49961;43.970;22.868;2023-07-13T00:07:44;7.33;;;6.23;;
63807;SDS011;49961;43.970;22.868;2023-07-13T00:08:46;8.27;;;6.40;;
63807;SDS011;49961;43.970;22.868;2023-07-13T00:09:47;8.73;;;6.33;;
63807;SDS011;49961;43.970;22.868;2023-07-13T00:10:48;10.07;;;6.40;;
63807;SDS011;49961;43.970;22.868;2023-07-13T00:11:55;7.60;;;5.93;;
63807;SDS011;49961;43.970;22.868;2023-07-13T00:12:56;6.90;;;5.83;;
63807;SDS011;49961;43.970;22.868;2023-07-13T00:13:57;9.67;;;6.27;;
63807;SDS011;49961;43.970;22.868;2023-07-13T00:14:58;10.10;;;6.10;;
63807;SDS011;49961;43.970;22.868;2023-07-13T00:16:00;7.07;;;5.77;;
63807;SDS011;49961;43.970;22.868;2023-07-13T00:17:01;8.60;;;5.90;;
63807;SDS011;49961;43.970;22.868;2023-07-13T00:18:01;8.60;;;5.93;;
63807;SDS011;49961;43.970;22.868;2023-07-13T00:19:02;6.77;;;6.07;;
63807;SDS011;49961;43.970;22.868;2023-07-13T00:20:02;6.63;;;5.10;;
63807;SDS011;49961;43.970;22.868;2023-07-13T00:21:04;9.87;;;6.03;;
63807;SDS011;49961;43.970;22.868;2023-07-13T00:22:07;7.37;;;5.77;;
63807;SDS011;49961;43.970;22.868;2023-07-13T00:23:07;6.93;;;6.17;;
63807;SDS011;49961;43.970;22.868;2023-07-13T00:24:08;7.63;;;5.80;;
63807;SDS011;49961;43.970;22.868;2023-07-13T00:25:15;6.37;;;5.70;;
63807;SDS011;49961;43.970;22.868;2023-07-13T00:26:16;7.23;;;5.93;;
63807;SDS011;49961;43.970;22.868;2023-07-13T00:27:17;9.57;;;6.03;;
63807;SDS011;49961;43.970;22.868;2023-07-13T00:28:18;7.73;;;6.00;;
63807;SDS011;49961;43.970;22.868;2023-07-13T00:29:18;7.30;;;5.77;;
63807;SDS011;49961;43.970;22.868;2023-07-13T00:30:21;11.90;;;6.07;;
63807;SDS011;49961;43.970;22.868;2023-07-13T00:31:22;7.37;;;5.93;;
63807;SDS011;49961;43.970;22.868;2023-07-13T00:32:22;7.67;;;5.87;;
63807;SDS011;49961;43.970;22.868;2023-07-13T00:33:22;6.77;;;5.93;;
63807;SDS011;49961;43.970;22.868;2023-07-13T00:34:23;6.43;;;5.67;;
63807;SDS011;49961;43.970;22.868;2023-07-13T00:35:25;7.33;;;5.67;;
63807;SDS011;49961;43.970;22.868;2023-07-13T00:36:26;7.13;;;5.27;;
63807;SDS011;49961;43.970;22.868;2023-07-13T00:37:26;8.53;;;5.10;;
63807;SDS011;49961;43.970;22.868;2023-07-13T00:38:27;6.17;;;5.33;;
63807;SDS011;49961;43.970;22.868;2023-07-13T00:39:27;6.57;;;5.90;;
63807;SDS011;49961;43.970;22.868;2023-07-13T00:40:28;9.03;;;5.50;;
63807;SDS011;49961;43.970;22.868;2023-07-13T00:41:28;9.87;;;5.73;;
63807;SDS011;49961;43.970;22.868;2023-07-13T00:42:28;9.87;;;6.00;;
63807;SDS011;49961;43.970;22.868;2023-07-13T00:43:29;7.30;;;5.93;;
63807;SDS011;49961;43.970;22.868;2023-07-13T00:44:30;11.50;;;5.50;;
63807;SDS011;49961;43.970;22.868;2023-07-13T00:46:31;8.70;;;5.87;;
63807;SDS011;49961;43.970;22.868;2023-07-13T00:47:33;8.17;;;5.77;;
63807;SDS011;49961;43.970;22.868;2023-07-13T00:48:34;6.67;;;5.40;;
63807;SDS011;49961;43.970;22.868;2023-07-13T00:49:37;8.57;;;5.50;;
63807;SDS011;49961;43.970;22.868;2023-07-13T00:50:38;6.67;;;5.73;;
63807;SDS011;49961;43.970;22.868;2023-07-13T00:51:40;6.60;;;5.60;;
63807;SDS011;49961;43.970;22.868;2023-07-13T00:52:53;7.90;;;5.70;;
63807;SDS011;49961;43.970;22.868;2023-07-13T00:53:58;7.97;;;5.90;;
63807;SDS011;49961;43.970;22.868;2023-07-13T00:55:03;8.30;;;5.93;;
63807;SDS011;49961;43.970;22.868;2023-07-13T00:56:04;9.00;;;6.27;;
63807;SDS011;49961;43.970;22.868;2023-07-13T00:57:10;9.57;;;5.73;;
63807;SDS011;49961;43.970;22.868;2023-07-13T00:58:14;10.13;;;5.60;;
63807;SDS011;49961;43.970;22.868;2023-07-13T00:59:15;12.77;;;5.87;;
63807;SDS011;49961;43.970;22.868;2023-07-13T01:00:19;8.13;;;6.10;;
63807;SDS011;49961;43.970;22.868;2023-07-13T01:01:22;7.67;;;5.20;;
63807;SDS011;49961;43.970;22.868;2023-07-13T01:02:22;9.03;;;5.97;;
63807;SDS011;49961;43.970;22.868;2023-07-13T01:03:24;11.43;;;6.23;;
63807;SDS011;49961;43.970;22.868;2023-07-13T01:04:25;13.40;;;6.30;;
63807;SDS011;49961;43.970;22.868;2023-07-13T01:05:26;13.47;;;6.10;;
63807;SDS011;49961;43.970;22.868;2023-07-13T01:06:27;9.47;;;6.43;;
63807;SDS011;49961;43.970;22.868;2023-07-13T01:07:28;10.13;;;5.83;;
63807;SDS011;49961;43.970;22.868;2023-07-13T01:08:28;9.10;;;6.07;;
63807;SDS011;49961;43.970;22.868;2023-07-13T01:09:29;9.60;;;6.03;;
63807;SDS011;49961;43.970;22.868;2023-07-13T01:10:29;10.17;;;5.70;;
63807;SDS011;49961;43.970;22.868;2023-07-13T01:11:39;10.67;;;5.90;;
63807;SDS011;49961;43.970;22.868;2023-07-13T01:12:39;10.90;;;6.40;;
63807;SDS011;49961;43.970;22.868;2023-07-13T01:13:40;6.30;;;5.53;;
63807;SDS011;49961;43.970;22.868;2023-07-13T01:14:40;7.13;;;5.83;;
63807;SDS011;49961;43.970;22.868;2023-07-13T01:16:44;10.87;;;5.87;;
63807;SDS011;49961;43.970;22.868;2023-07-13T01:17:47;13.70;;;6.70;;
63807;SDS011;49961;43.970;22.868;2023-07-13T01:18:47;23.70;;;7.43;;
63807;SDS011;49961;43.970;22.868;2023-07-13T01:19:48;24.53;;;8.23;;
63807;SDS011;49961;43.970;22.868;2023-07-13T01:20:55;28.87;;;7.70;;
63807;SDS011;49961;43.970;22.868;2023-07-13T01:21:57;14.67;;;6.90;;
63807;SDS011;49961;43.970;22.868;2023-07-13T01:22:58;11.20;;;5.53;;
63807;SDS011;49961;43.970;22.868;2023-07-13T01:23:59;11.50;;;5.93;;
63807;SDS011;49961;43.970;22.868;2023-07-13T01:25:00;16.60;;;6.40;;
63807;SDS011;49961;43.970;22.868;2023-07-13T01:26:00;10.00;;;5.53;;
63807;SDS011;49961;43.970;22.868;2023-07-13T01:27:02;7.87;;;5.90;;
63807;SDS011;49961;43.970;22.868;2023-07-13T01:28:03;8.73;;;6.13;;
63807;SDS011;49961;43.970;22.868;2023-07-13T01:29:05;13.60;;;6.03;;
63807;SDS011;49961;43.970;22.868;2023-07-13T01:30:05;9.10;;;5.93;;
63807;SDS011;49961;43.970;22.868;2023-07-13T01:31:06;9.53;;;6.33;;
63807;SDS011;49961;43.970;22.868;2023-07-13T01:32:13;11.10;;;5.90;;
63807;SDS011;49961;43.970;22.868;2023-07-13T01:33:16;8.60;;;5.60;;
63807;SDS011;49961;43.970;22.868;2023-07-13T01:34:18;10.77;;;6.00;;
63807;SDS011;49961;43.970;22.868;2023-07-13T01:35:18;8.00;;;6.57;;
63807;SDS011;49961;43.970;22.868;2023-07-13T01:36:18;11.93;;;6.90;;
63807;SDS011;49961;43.970;22.868;2023-07-13T01:37:21;8.87;;;6.07;;
63807;SDS011;49961;43.970;22.868;2023-07-13T01:38:26;9.63;;;6.40;;
63807;SDS011;49961;43.970;22.868;2023-07-13T01:39:26;10.10;;;6.17;;
63807;SDS011;49961;43.970;22.868;2023-07-13T01:40:27;9.13;;;6.20;;
63807;SDS011;49961;43.970;22.868;2023-07-13T01:41:28;8.03;;;5.77;;
63807;SDS011;49961;43.970;22.868;2023-07-13T01:42:29;9.87;;;6.07;;
63807;SDS011;49961;43.970;22.868;2023-07-13T01:43:30;6.77;;;5.87;;
63807;SDS011;49961;43.970;22.868;2023-07-13T01:44:30;10.40;;;6.40;;
63807;SDS011;49961;43.970;22.868;2023-07-13T01:45:31;6.37;;;5.77;;
63807;SDS011;49961;43.970;22.868;2023-07-13T01:46:31;9.37;;;6.00;;
63807;SDS011;49961;43.970;22.868;2023-07-13T01:47:33;9.27;;;5.97;;
63807;SDS011;49961;43.970;22.868;2023-07-13T01:48:33;6.53;;;5.77;;
63807;SDS011;49961;43.970;22.868;2023-07-13T01:49:33;6.70;;;5.90;;
63807;SDS011;49961;43.970;22.868;2023-07-13T01:50:34;6.67;;;5.63;;
63807;SDS011;49961;43.970;22.868;2023-07-13T01:51:35;9.57;;;6.20;;
63807;SDS011;49961;43.970;22.868;2023-07-13T01:52:35;9.03;;;5.93;;
63807;SDS011;49961;43.970;22.868;2023-07-13T01:53:36;11.23;;;5.83;;
63807;SDS011;49961;43.970;22.868;2023-07-13T01:54:36;7.80;;;5.87;;
63807;SDS011;49961;43.970;22.868;2023-07-13T01:55:37;10.50;;;5.67;;
63807;SDS011;49961;43.970;22.868;2023-07-13T01:56:38;7.80;;;5.70;;
63807;SDS011;49961;43.970;22.868;2023-07-13T01:57:39;8.27;;;5.73;;
63807;SDS011;49961;43.970;22.868;2023-07-13T01:58:40;6.67;;;5.70;;
63807;SDS011;49961;43.970;22.868;2023-07-13T01:59:40;9.43;;;6.07;;
63807;SDS011;49961;43.970;22.868;2023-07-13T02:00:41;7.30;;;5.67;;
63807;SDS011;49961;43.970;22.868;2023-07-13T02:01:41;8.73;;;5.60;;
63807;SDS011;49961;43.970;22.868;2023-07-13T02:02:41;7.57;;;6.10;;
63807;SDS011;49961;43.970;22.868;2023-07-13T02:03:42;6.43;;;5.47;;
63807;SDS011;49961;43.970;22.868;2023-07-13T02:04:43;7.07;;;5.40;;
63807;SDS011;49961;43.970;22.868;2023-07-13T02:05:44;7.87;;;5.40;;
63807;SDS011;49961;43.970;22.868;2023-07-13T02:06:45;8.57;;;5.80;;
63807;SDS011;49961;43.970;22.868;2023-07-13T02:07:45;9.67;;;6.00;;
63807;SDS011;49961;43.970;22.868;2023-07-13T02:08:45;11.67;;;6.10;;
63807;SDS011;49961;43.970;22.868;2023-07-13T02:09:46;12.07;;;6.57;;
63807;SDS011;49961;43.970;22.868;2023-07-13T02:10:46;9.60;;;5.90;;
63807;SDS011;49961;43.970;22.868;2023-07-13T02:11:47;10.33;;;5.97;;
63807;SDS011;49961;43.970;22.868;2023-07-13T02:12:48;8.83;;;5.90;;
63807;SDS011;49961;43.970;22.868;2023-07-13T02:13:50;8.33;;;5.90;;
63807;SDS011;49961;43.970;22.868;2023-07-13T02:14:51;8.10;;;5.60;;
63807;SDS011;49961;43.970;22.868;2023-07-13T02:15:52;10.70;;;5.80;;
63807;SDS011;49961;43.970;22.868;2023-07-13T02:16:52;7.60;;;5.67;;
63807;SDS011;49961;43.970;22.868;2023-07-13T02:17:53;8.40;;;6.07;;
63807;SDS011;49961;43.970;22.868;2023-07-13T02:18:53;9.20;;;6.03;;
63807;SDS011;49961;43.970;22.868;2023-07-13T02:19:55;7.87;;;5.87;;
63807;SDS011;49961;43.970;22.868;2023-07-13T02:20:55;7.83;;;5.67;;
63807;SDS011;49961;43.970;22.868;2023-07-13T02:21:56;8.27;;;5.93;;
63807;SDS011;49961;43.970;22.868;2023-07-13T02:22:56;8.30;;;5.40;;
63807;SDS011;49961;43.970;22.868;2023-07-13T02:23:57;13.33;;;6.33;;
63807;SDS011;49961;43.970;22.868;2023-07-13T02:24:57;10.77;;;5.90;;
63807;SDS011;49961;43.970;22.868;2023-07-13T02:25:59;12.93;;;6.60;;
63807;SDS011;49961;43.970;22.868;2023-07-13T02:27:00;11.77;;;6.73;;
63807;SDS011;49961;43.970;22.868;2023-07-13T02:28:00;11.80;;;6.40;;
63807;SDS011;49961;43.970;22.868;2023-07-13T02:29:01;8.53;;;6.50;;
63807;SDS011;49961;43.970;22.868;2023-07-13T02:30:01;8.97;;;6.07;;
63807;SDS011;49961;43.970;22.868;2023-07-13T02:31:07;10.10;;;6.27;;
63807;SDS011;49961;43.970;22.868;2023-07-13T02:32:08;9.60;;;5.90;;
63807;SDS011;49961;43.970;22.868;2023-07-13T02:33:09;11.07;;;6.20;;
63807;SDS011;49961;43.970;22.868;2023-07-13T02:34:09;18.70;;;7.43;;
63807;SDS011;49961;43.970;22.868;2023-07-13T02:35:10;18.53;;;7.30;;
63807;SDS011;49961;43.970;22.868;2023-07-13T02:36:10;14.17;;;7.00;;
63807;SDS011;49961;43.970;22.868;2023-07-13T02:37:12;14.83;;;7.13;;
63807;SDS011;49961;43.970;22.868;2023-07-13T02:38:12;13.60;;;6.23;;
63807;SDS011;49961;43.970;22.868;2023-07-13T02:39:13;10.47;;;6.20;;
63807;SDS011;49961;43.970;22.868;2023-07-13T02:40:13;13.00;;;6.40;;
63807;SDS011;49961;43.970;22.868;2023-07-13T02:41:14;12.37;;;6.37;;
63807;SDS011;49961;43.970;22.868;2023-07-13T02:42:14;12.10;;;6.30;;
63807;SDS011;49961;43.970;22.868;2023-07-13T02:43:15;8.20;;;6.20;;
63807;SDS011;49961;43.970;22.868;2023-07-13T02:44:15;7.70;;;6.30;;
63807;SDS011;49961;43.970;22.868;2023-07-13T02:45:16;9.37;;;5.97;;
63807;SDS011;49961;43.970;22.868;2023-07-13T02:46:16;9.00;;;6.57;;
63807;SDS011;49961;43.970;22.868;2023-07-13T02:47:16;10.00;;;6.67;;
63807;SDS011;49961;43.970;22.868;2023-07-13T02:48:17;8.83;;;6.40;;
63807;SDS011;49961;43.970;22.868;2023-07-13T02:49:17;9.07;;;5.50;;
63807;SDS011;49961;43.970;22.868;2023-07-13T02:50:18;9.37;;;5.77;;
63807;SDS011;49961;43.970;22.868;2023-07-13T02:51:19;10.90;;;6.03;;
63807;SDS011;49961;43.970;22.868;2023-07-13T02:52:19;10.23;;;6.50;;
63807;SDS011;49961;43.970;22.868;2023-07-13T02:53:20;9.80;;;6.40;;
63807;SDS011;49961;43.970;22.868;2023-07-13T02:54:20;13.73;;;6.40;;
63807;SDS011;49961;43.970;22.868;2023-07-13T02:55:21;15.90;;;6.93;;
63807;SDS011;49961;43.970;22.868;2023-07-13T02:56:25;13.67;;;7.07;;
63807;SDS011;49961;43.970;22.868;2023-07-13T02:57:27;12.67;;;7.13;;
63807;SDS011;49961;43.970;22.868;2023-07-13T02:58:28;15.97;;;6.47;;
63807;SDS011;49961;43.970;22.868;2023-07-13T02:59:28;16.10;;;7.17;;
63807;SDS011;49961;43.970;22.868;2023-07-13T03:00:29;12.73;;;6.73;;
63807;SDS011;49961;43.970;22.868;2023-07-13T03:01:29;20.37;;;6.83;;
63807;SDS011;49961;43.970;22.868;2023-07-13T03:02:30;13.20;;;6.53;;
63807;SDS011;49961;43.970;22.868;2023-07-13T03:03:30;14.87;;;7.30;;
63807;SDS011;49961;43.970;22.868;2023-07-13T03:04:31;11.60;;;6.77;;
63807;SDS011;49961;43.970;22.868;2023-07-13T03:05:31;10.77;;;6.43;;
63807;SDS011;49961;43.970;22.868;2023-07-13T03:06:32;12.00;;;6.70;;
63807;SDS011;49961;43.970;22.868;2023-07-13T03:07:33;12.13;;;6.50;;
63807;SDS011;49961;43.970;22.868;2023-07-13T03:08:34;12.43;;;7.10;;
63807;SDS011;49961;43.970;22.868;2023-07-13T03:09:34;11.53;;;7.27;;
63807;SDS011;49961;43.970;22.868;2023-07-13T03:10:36;10.13;;;6.63;;
63807;SDS011;49961;43.970;22.868;2023-07-13T03:11:36;9.13;;;6.80;;
63807;SDS011;49961;43.970;22.868;2023-07-13T03:12:37;10.30;;;6.73;;
63807;SDS011;49961;43.970;22.868;2023-07-13T03:13:37;9.03;;;6.20;;
63807;SDS011;49961;43.970;22.868;2023-07-13T03:14:38;9.63;;;6.90;;
63807;SDS011;49961;43.970;22.868;2023-07-13T03:15:39;8.90;;;6.30;;
63807;SDS011;49961;43.970;22.868;2023-07-13T03:16:39;9.17;;;6.47;;
63807;SDS011;49961;43.970;22.868;2023-07-13T03:17:40;7.77;;;6.37;;
63807;SDS011;49961;43.970;22.868;2023-07-13T03:18:40;6.70;;;6.00;;
63807;SDS011;49961;43.970;22.868;2023-07-13T03:19:41;7.87;;;6.47;;
63807;SDS011;49961;43.970;22.868;2023-07-13T03:20:42;8.40;;;5.93;;
63807;SDS011;49961;43.970;22.868;2023-07-13T03:21:42;7.57;;;6.23;;
63807;SDS011;49961;43.970;22.868;2023-07-13T03:22:42;8.27;;;6.47;;
63807;SDS011;49961;43.970;22.868;2023-07-13T03:23:43;7.37;;;6.33;;
63807;SDS011;49961;43.970;22.868;2023-07-13T03:24:44;8.23;;;6.37;;
63807;SDS011;49961;43.970;22.868;2023-07-13T03:25:44;7.93;;;6.63;;
63807;SDS011;49961;43.970;22.868;2023-07-13T03:26:45;7.83;;;6.33;;
63807;SDS011;49961;43.970;22.868;2023-07-13T03:27:45;7.40;;;6.37;;
63807;SDS011;49961;43.970;22.868;2023-07-13T03:28:46;9.43;;;6.60;;
63807;SDS011;49961;43.970;22.868;2023-07-13T03:29:46;10.40;;;6.50;;
63807;SDS011;49961;43.970;22.868;2023-07-13T03:30:47;9.70;;;6.37;;
63807;SDS011;49961;43.970;22.868;2023-07-13T03:31:47;9.53;;;6.90;;
63807;SDS011;49961;43.970;22.868;2023-07-13T03:32:48;7.97;;;6.77;;
63807;SDS011;49961;43.970;22.868;2023-07-13T03:33:48;8.57;;;6.13;;
63807;SDS011;49961;43.970;22.868;2023-07-13T03:34:49;7.20;;;6.40;;
63807;SDS011;49961;43.970;22.868;2023-07-13T03:35:49;9.53;;;6.23;;
63807;SDS011;49961;43.970;22.868;2023-07-13T03:36:50;8.20;;;6.13;;
63807;SDS011;49961;43.970;22.868;2023-07-13T03:37:50;10.43;;;5.90;;
63807;SDS011;49961;43.970;22.868;2023-07-13T03:38:52;10.57;;;6.23;;
63807;SDS011;49961;43.970;22.868;2023-07-13T03:39:55;13.27;;;7.07;;
63807;SDS011;49961;43.970;22.868;2023-07-13T03:40:55;15.80;;;7.10;;
63807;SDS011;49961;43.970;22.868;2023-07-13T03:41:56;18.10;;;7.33;;
63807;SDS011;49961;43.970;22.868;2023-07-13T03:42:56;15.17;;;7.00;;
63807;SDS011;49961;43.970;22.868;2023-07-13T03:43:57;14.70;;;6.53;;
63807;SDS011;49961;43.970;22.868;2023-07-13T03:44:57;14.67;;;7.23;;
63807;SDS011;49961;43.970;22.868;2023-07-13T03:45:58;12.90;;;6.70;;
63807;SDS011;49961;43.970;22.868;2023-07-13T03:46:58;13.17;;;7.00;;
63807;SDS011;49961;43.970;22.868;2023-07-13T03:47:58;16.07;;;7.03;;
63807;SDS011;49961;43.970;22.868;2023-07-13T03:48:59;17.97;;;7.50;;
63807;SDS011;49961;43.970;22.868;2023-07-13T03:50:00;20.83;;;7.57;;
63807;SDS011;49961;43.970;22.868;2023-07-13T03:51:00;17.33;;;7.43;;
63807;SDS011;49961;43.970;22.868;2023-07-13T03:52:01;15.83;;;7.10;;
63807;SDS011;49961;43.970;22.868;2023-07-13T03:53:01;14.50;;;7.00;;
63807;SDS011;49961;43.970;22.868;2023-07-13T03:54:01;11.10;;;7.13;;
63807;SDS011;49961;43.970;22.868;2023-07-13T03:55:02;17.43;;;7.17;;
63807;SDS011;49961;43.970;22.868;2023-07-13T03:56:03;16.60;;;7.40;;
63807;SDS011;49961;43.970;22.868;2023-07-13T03:57:04;15.87;;;7.57;;
63807;SDS011;49961;43.970;22.868;2023-07-13T03:59:35;18.00;;;7.00;;
63807;SDS011;49961;43.970;22.868;2023-07-13T04:00:35;20.47;;;8.03;;
63807;SDS011;49961;43.970;22.868;2023-07-13T04:01:35;20.60;;;7.50;;
63807;SDS011;49961;43.970;22.868;2023-07-13T04:02:36;17.90;;;7.00;;
63807;SDS011;49961;43.970;22.868;2023-07-13T04:03:37;16.13;;;6.37;;
63807;SDS011;49961;43.970;22.868;2023-07-13T04:04:38;17.80;;;7.00;;
63807;SDS011;49961;43.970;22.868;2023-07-13T04:05:40;13.53;;;7.07;;
63807;SDS011;49961;43.970;22.868;2023-07-13T04:06:41;12.73;;;6.80;;
63807;SDS011;49961;43.970;22.868;2023-07-13T04:07:41;16.73;;;7.20;;
63807;SDS011;49961;43.970;22.868;2023-07-13T04:08:42;16.80;;;7.00;;
63807;SDS011;49961;43.970;22.868;2023-07-13T04:09:42;12.43;;;7.23;;
63807;SDS011;49961;43.970;22.868;2023-07-13T04:10:43;14.77;;;7.07;;
63807;SDS011;49961;43.970;22.868;2023-07-13T04:11:43;16.47;;;7.37;;
63807;SDS011;49961;43.970;22.868;2023-07-13T04:12:44;14.73;;;7.07;;
63807;SDS011;49961;43.970;22.868;2023-07-13T04:13:44;18.47;;;7.60;;
63807;SDS011;49961;43.970;22.868;2023-07-13T04:14:45;19.80;;;7.53;;
63807;SDS011;49961;43.970;22.868;2023-07-13T04:15:46;22.57;;;7.97;;
63807;SDS011;49961;43.970;22.868;2023-07-13T04:16:46;18.60;;;7.70;;
63807;SDS011;49961;43.970;22.868;2023-07-13T04:17:47;17.80;;;8.40;;
63807;SDS011;49961;43.970;22.868;2023-07-13T04:18:47;22.37;;;8.53;;
63807;SDS011;49961;43.970;22.868;2023-07-13T04:19:48;17.40;;;7.80;;
63807;SDS011;49961;43.970;22.868;2023-07-13T04:20:49;17.07;;;7.30;;
63807;SDS011;49961;43.970;22.868;2023-07-13T04:21:50;21.10;;;7.13;;
63807;SDS011;49961;43.970;22.868;2023-07-13T04:22:51;12.70;;;6.80;;
63807;SDS011;49961;43.970;22.868;2023-07-13T04:23:53;17.80;;;7.47;;
63807;SDS011;49961;43.970;22.868;2023-07-13T04:24:54;8.73;;;4.50;;
63807;SDS011;49961;43.970;22.868;2023-07-13T04:25:54;3.30;;;3.00;;
63807;SDS011;49961;43.970;22.868;2023-07-13T04:26:55;10.47;;;3.93;;
63807;SDS011;49961;43.970;22.868;2023-07-13T04:27:59;12.87;;;5.53;;
63807;SDS011;49961;43.970;22.868;2023-07-13T04:28:59;8.13;;;4.27;;
63807;SDS011;49961;43.970;22.868;2023-07-13T04:30:00;8.63;;;4.23;;
63807;SDS011;49961;43.970;22.868;2023-07-13T04:31:01;7.33;;;4.10;;
63807;SDS011;49961;43.970;22.868;2023-07-13T04:32:01;10.73;;;5.47;;
63807;SDS011;49961;43.970;22.868;2023-07-13T04:33:02;12.73;;;7.23;;
63807;SDS011;49961;43.970;22.868;2023-07-13T04:34:02;15.40;;;6.00;;
63807;SDS011;49961;43.970;22.868;2023-07-13T04:35:03;9.43;;;4.83;;
63807;SDS011;49961;43.970;22.868;2023-07-13T04:36:04;11.33;;;5.20;;
63807;SDS011;49961;43.970;22.868;2023-07-13T04:37:05;11.23;;;6.07;;
63807;SDS011;49961;43.970;22.868;2023-07-13T04:38:06;9.53;;;5.40;;
63807;SDS011;49961;43.970;22.868;2023-07-13T04:39:06;16.58;;;7.18;;
63807;SDS011;49961;43.970;22.868;2023-07-13T04:40:07;11.47;;;6.07;;
63807;SDS011;49961;43.970;22.868;2023-07-13T04:41:12;12.95;;;5.55;;
63807;SDS011;49961;43.970;22.868;2023-07-13T04:42:14;11.23;;;5.78;;
63807;SDS011;49961;43.970;22.868;2023-07-13T04:43:15;9.98;;;6.35;;
63807;SDS011;49961;43.970;22.868;2023-07-13T04:44:15;10.18;;;5.60;;
63807;SDS011;49961;43.970;22.868;2023-07-13T04:45:17;9.05;;;5.95;;
63807;SDS011;49961;43.970;22.868;2023-07-13T04:46:17;12.00;;;6.32;;
63807;SDS011;49961;43.970;22.868;2023-07-13T04:47:19;11.90;;;5.72;;
63807;SDS011;49961;43.970;22.868;2023-07-13T04:48:20;14.38;;;6.45;;
63807;SDS011;49961;43.970;22.868;2023-07-13T04:49:20;7.93;;;6.07;;
63807;SDS011;49961;43.970;22.868;2023-07-13T04:50:21;9.85;;;6.53;;
63807;SDS011;49961;43.970;22.868;2023-07-13T04:51:23;9.88;;;6.70;;
63807;SDS011;49961;43.970;22.868;2023-07-13T04:52:23;8.95;;;5.72;;
63807;SDS011;49961;43.970;22.868;2023-07-13T04:53:25;8.93;;;5.97;;
63807;SDS011;49961;43.970;22.868;2023-07-13T04:54:26;11.75;;;6.07;;
63807;SDS011;49961;43.970;22.868;2023-07-13T04:55:27;12.63;;;6.03;;
63807;SDS011;49961;43.970;22.868;2023-07-13T04:56:30;12.82;;;6.40;;
63807;SDS011;49961;43.970;22.868;2023-07-13T04:57:31;8.70;;;6.63;;
63807;SDS011;49961;43.970;22.868;2023-07-13T04:58:31;9.15;;;6.13;;
63807;SDS011;49961;43.970;22.868;2023-07-13T04:59:33;10.32;;;6.03;;
63807;SDS011;49961;43.970;22.868;2023-07-13T05:00:34;9.65;;;6.88;;
63807;SDS011;49961;43.970;22.868;2023-07-13T05:01:34;11.23;;;6.13;;
63807;SDS011;49961;43.970;22.868;2023-07-13T05:02:37;8.82;;;6.00;;
63807;SDS011;49961;43.970;22.868;2023-07-13T05:03:38;8.90;;;5.63;;
63807;SDS011;49961;43.970;22.868;2023-07-13T05:04:39;8.80;;;6.22;;
63807;SDS011;49961;43.970;22.868;2023-07-13T05:05:40;8.63;;;6.78;;
63807;SDS011;49961;43.970;22.868;2023-07-13T05:06:40;10.77;;;7.00;;
63807;SDS011;49961;43.970;22.868;2023-07-13T05:07:41;10.82;;;6.53;;
63807;SDS011;49961;43.970;22.868;2023-07-13T05:08:41;10.05;;;7.20;;
63807;SDS011;49961;43.970;22.868;2023-07-13T05:09:41;8.38;;;6.70;;
63807;SDS011;49961;43.970;22.868;2023-07-13T05:10:42;13.75;;;7.30;;
63807;SDS011;49961;43.970;22.868;2023-07-13T05:11:43;8.13;;;6.28;;
63807;SDS011;49961;43.970;22.868;2023-07-13T05:12:44;8.45;;;6.15;;
63807;SDS011;49961;43.970;22.868;2023-07-13T05:13:44;9.70;;;6.45;;
63807;SDS011;49961;43.970;22.868;2023-07-13T05:14:44;8.73;;;7.47;;
63807;SDS011;49961;43.970;22.868;2023-07-13T05:15:45;9.00;;;7.43;;
63807;SDS011;49961;43.970;22.868;2023-07-13T05:16:47;8.55;;;7.35;;
63807;SDS011;49961;43.970;22.868;2023-07-13T05:17:48;8.85;;;7.07;;
63807;SDS011;49961;43.970;22.868;2023-07-13T05:18:49;11.77;;;7.72;;
63807;SDS011;49961;43.970;22.868;2023-07-13T05:19:49;10.57;;;7.65;;
63807;SDS011;49961;43.970;22.868;2023-07-13T05:21:03;10.55;;;7.05;;
63807;SDS011;49961;43.970;22.868;2023-07-13T05:22:05;9.88;;;7.80;;
63807;SDS011;49961;43.970;22.868;2023-07-13T05:23:06;11.63;;;7.57;;
63807;SDS011;49961;43.970;22.868;2023-07-13T05:24:06;11.32;;;8.75;;
63807;SDS011;49961;43.970;22.868;2023-07-13T05:25:07;8.73;;;7.82;;
63807;SDS011;49961;43.970;22.868;2023-07-13T05:26:07;11.73;;;8.00;;
63807;SDS011;49961;43.970;22.868;2023-07-13T05:27:08;10.13;;;8.77;;
63807;SDS011;49961;43.970;22.868;2023-07-13T05:28:08;13.50;;;8.77;;
63807;SDS011;49961;43.970;22.868;2023-07-13T05:29:09;13.80;;;8.27;;
63807;SDS011;49961;43.970;22.868;2023-07-13T05:30:09;10.90;;;8.35;;
63807;SDS011;49961;43.970;22.868;2023-07-13T05:31:12;9.52;;;8.50;;
63807;SDS011;49961;43.970;22.868;2023-07-13T05:32:12;11.25;;;9.57;;
63807;SDS011;49961;43.970;22.868;2023-07-13T05:33:12;9.65;;;8.68;;
63807;SDS011;49961;43.970;22.868;2023-07-13T05:34:13;10.23;;;8.73;;
63807;SDS011;49961;43.970;22.868;2023-07-13T05:35:13;14.18;;;8.98;;
63807;SDS011;49961;43.970;22.868;2023-07-13T05:36:14;10.18;;;9.00;;
63807;SDS011;49961;43.970;22.868;2023-07-13T05:37:14;10.68;;;8.20;;
63807;SDS011;49961;43.970;22.868;2023-07-13T05:38:15;12.30;;;8.88;;
63807;SDS011;49961;43.970;22.868;2023-07-13T05:39:15;13.10;;;8.88;;
63807;SDS011;49961;43.970;22.868;2023-07-13T05:40:16;10.65;;;8.93;;
63807;SDS011;49961;43.970;22.868;2023-07-13T05:41:17;10.73;;;9.13;;
63807;SDS011;49961;43.970;22.868;2023-07-13T05:42:17;11.60;;;8.75;;
63807;SDS011;49961;43.970;22.868;2023-07-13T05:43:17;10.13;;;8.68;;
63807;SDS011;49961;43.970;22.868;2023-07-13T05:44:18;11.93;;;9.02;;
63807;SDS011;49961;43.970;22.868;2023-07-13T05:45:19;11.38;;;8.85;;
63807;SDS011;49961;43.970;22.868;2023-07-13T05:46:19;11.18;;;8.35;;
63807;SDS011;49961;43.970;22.868;2023-07-13T05:47:20;13.15;;;8.80;;
63807;SDS011;49961;43.970;22.868;2023-07-13T05:48:20;9.82;;;8.35;;
63807;SDS011;49961;43.970;22.868;2023-07-13T05:49:21;9.63;;;8.18;;
63807;SDS011;49961;43.970;22.868;2023-07-13T05:50:21;9.63;;;8.45;;
63807;SDS011;49961;43.970;22.868;2023-07-13T05:51:22;12.27;;;10.35;;
63807;SDS011;49961;43.970;22.868;2023-07-13T05:52:22;9.35;;;8.27;;
63807;SDS011;49961;43.970;22.868;2023-07-13T05:53:23;10.50;;;9.18;;
63807;SDS011;49961;43.970;22.868;2023-07-13T05:54:23;11.07;;;9.23;;
63807;SDS011;49961;43.970;22.868;2023-07-13T05:55:23;10.05;;;9.05;;
63807;SDS011;49961;43.970;22.868;2023-07-13T05:56:24;10.38;;;8.52;;
63807;SDS011;49961;43.970;22.868;2023-07-13T05:57:26;9.57;;;8.50;;
63807;SDS011;49961;43.970;22.868;2023-07-13T05:58:26;11.15;;;8.98;;
63807;SDS011;49961;43.970;22.868;2023-07-13T05:59:27;13.07;;;9.23;;
63807;SDS011;49961;43.970;22.868;2023-07-13T06:00:27;11.32;;;9.52;;
63807;SDS011;49961;43.970;22.868;2023-07-13T06:01:29;12.48;;;9.07;;
63807;SDS011;49961;43.970;22.868;2023-07-13T06:02:30;10.02;;;8.60;;
63807;SDS011;49961;43.970;22.868;2023-07-13T06:03:31;11.02;;;9.20;;